createdAt,value
2022-10-03T00:01:50.901Z,102335.59
2022-10-03T00:04:38.933Z,102335.50
2022-10-03T00:07:21.565Z,102343.41
2022-10-03T00:10:03.007Z,102339.78
2022-10-03T00:12:49.447Z,102350.38
2022-10-03T00:15:26.353Z,102345.06
2022-10-03T00:18:09.243Z,102356.56
2022-10-03T00:20:55.620Z,102360.09
2022-10-03T00:23:37.285Z,102361.66
2022-10-03T00:26:29.457Z,102366.94
2022-10-03T00:29:21.686Z,102364.25
2022-10-03T00:32:04.219Z,102365.03
2022-10-03T00:34:45.733Z,102366.78
2022-10-03T00:37:27.708Z,102371.13
2022-10-03T00:40:19.877Z,102371.09
2022-10-03T00:43:31.222Z,102384.31
2022-10-03T00:46:32.950Z,102384.25
2022-10-03T00:49:44.290Z,102391.19
2022-10-03T00:52:39.155Z,102388.50
2022-10-03T00:55:19.838Z,102386.69
2022-10-03T00:58:06.210Z,102399.13
2022-10-03T01:00:38.306Z,102391.19
2022-10-03T01:03:25.735Z,102403.66
2022-10-03T01:06:09.959Z,102401.78
2022-10-03T01:09:15.085Z,102405.38
2022-10-03T01:12:03.837Z,102401.75
2022-10-03T01:14:54.953Z,102406.06
2022-10-03T01:17:39.784Z,102406.13
2022-10-03T01:20:20.953Z,102406.94
2022-10-03T01:23:17.001Z,102412.25
2022-10-03T01:25:56.942Z,102407.84
2022-10-03T01:29:02.869Z,102405.97
2022-10-03T01:31:40.476Z,102407.50
2022-10-03T01:34:16.015Z,102409.06
2022-10-03T01:36:55.202Z,102413.53
2022-10-03T01:39:32.204Z,102408.22
2022-10-03T01:42:08.977Z,102414.34
2022-10-03T01:44:56.698Z,102416.09
2022-10-03T01:47:34.612Z,102411.56
2022-10-03T01:50:11.560Z,102414.91
2022-10-03T01:52:51.220Z,102421.13
2022-10-03T01:55:32.455Z,102415.88
2022-10-03T01:58:08.739Z,102415.75
2022-10-03T02:00:48.647Z,102413.94
2022-10-03T02:03:24.536Z,102433.22
2022-10-03T02:06:03.923Z,102427.78
2022-10-03T02:08:50.647Z,102423.34
2022-10-03T02:11:33.463Z,102432.16
2022-10-03T02:14:18.132Z,102427.72
2022-10-03T02:17:00.306Z,102431.28
2022-10-03T02:19:34.358Z,102425.00
2022-10-03T02:22:04.246Z,102430.28
2022-10-03T02:24:46.288Z,102435.66
2022-10-03T02:27:47.655Z,102432.16
2022-10-03T02:30:23.126Z,102430.28
2022-10-03T02:33:25.307Z,102437.31
2022-10-03T02:36:28.095Z,102434.69
2022-10-03T02:39:17.527Z,102439.06
2022-10-03T02:42:08.324Z,102441.63
2022-10-03T02:45:01.596Z,102432.78
2022-10-03T02:48:27.450Z,102431.94
2022-10-03T02:51:19.150Z,102439.97
2022-10-03T02:54:40.023Z,102446.25
2022-10-03T02:57:42.560Z,102447.06
2022-10-03T03:00:21.144Z,102450.53
2022-10-03T03:03:13.466Z,102447.06
2022-10-03T03:06:24.840Z,102448.81
2022-10-03T03:09:12.240Z,102445.34
2022-10-03T03:12:10.296Z,102440.88
2022-10-03T03:15:26.891Z,102444.41
2022-10-03T03:18:10.308Z,102443.47
2022-10-03T03:20:57.306Z,102442.63
2022-10-03T03:23:47.752Z,102443.59
2022-10-03T03:26:43.808Z,102448.94
2022-10-03T03:29:24.076Z,102452.50
2022-10-03T03:32:04.281Z,102459.59
2022-10-03T03:34:43.956Z,102457.03
2022-10-03T03:37:22.816Z,102459.72
2022-10-03T03:40:10.127Z,102467.75
2022-10-03T03:43:05.065Z,102470.31
2022-10-03T03:45:48.868Z,102481.66
2022-10-03T03:48:46.973Z,102476.31
2022-10-03T03:51:27.362Z,102474.34
2022-10-03T03:54:28.996Z,102473.38
2022-10-03T03:57:14.565Z,102469.75
2022-10-03T04:00:08.889Z,102477.66
2022-10-03T04:02:55.780Z,102479.41
2022-10-03T04:05:39.092Z,102478.53
2022-10-03T04:08:31.301Z,102479.50
2022-10-03T04:11:11.714Z,102486.59
2022-10-03T04:14:00.161Z,102490.13
2022-10-03T04:17:15.807Z,102483.03
2022-10-03T04:20:04.031Z,102485.56
2022-10-03T04:22:51.163Z,102482.91
2022-10-03T04:25:54.876Z,102489.94
2022-10-03T04:28:38.514Z,102488.13
2022-10-03T04:31:21.778Z,102496.81
2022-10-03T04:34:10.910Z,102495.78
2022-10-03T04:37:05.442Z,102496.44
2022-10-03T04:39:43.789Z,102489.19
2022-10-03T04:42:24.310Z,102497.88
2022-10-03T04:45:10.045Z,102489.00
2022-10-03T04:47:48.292Z,102497.69
2022-10-03T04:50:34.033Z,102490.56
2022-10-03T04:53:21.340Z,102498.38
2022-10-03T04:55:55.245Z,102497.22
2022-10-03T04:58:34.877Z,102500.72
2022-10-03T05:01:15.468Z,102493.56
2022-10-03T05:03:53.048Z,102495.22
2022-10-03T05:06:49.135Z,102490.69
2022-10-03T05:09:33.399Z,102492.34
2022-10-03T05:12:13.795Z,102493.09
2022-10-03T05:15:02.784Z,102488.63
2022-10-03T05:17:43.918Z,102485.03
2022-10-03T05:20:27.406Z,102492.88
2022-10-03T05:23:09.977Z,102489.22
2022-10-03T05:25:53.737Z,102488.22
2022-10-03T05:28:40.683Z,102491.63
2022-10-03T05:31:28.405Z,102499.63
2022-10-03T05:34:06.732Z,102500.47
2022-10-03T05:36:52.501Z,102501.22
2022-10-03T05:39:40.353Z,102501.81
2022-10-03T05:42:27.295Z,102498.97
2022-10-03T05:45:06.032Z,102504.97
2022-10-03T05:47:52.024Z,102515.38
2022-10-03T05:50:57.972Z,102509.94
2022-10-03T05:53:53.735Z,102511.44
2022-10-03T05:56:44.043Z,102515.59
2022-10-03T05:59:35.939Z,102520.78
2022-10-03T06:02:41.102Z,102519.84
2022-10-03T06:05:32.851Z,102530.31
2022-10-03T06:08:53.173Z,102530.06
2022-10-03T06:11:38.488Z,102525.38
2022-10-03T06:14:30.613Z,102529.56
2022-10-03T06:17:21.304Z,102533.91
2022-10-03T06:19:55.352Z,102538.25
2022-10-03T06:23:15.497Z,102540.06
2022-10-03T06:26:17.909Z,102549.78
2022-10-03T06:29:31.235Z,102545.34
2022-10-03T06:32:30.249Z,102549.66
2022-10-03T06:35:38.930Z,102550.63
2022-10-03T06:38:45.239Z,102552.44
2022-10-03T06:41:44.764Z,102551.53
2022-10-03T06:44:34.080Z,102554.91
2022-10-03T06:47:23.921Z,102557.56
2022-10-03T06:50:26.532Z,102550.47
2022-10-03T06:53:33.290Z,102548.75
2022-10-03T06:56:32.027Z,102559.34
2022-10-03T06:59:12.344Z,102559.59
2022-10-03T07:02:16.942Z,102563.34
2022-10-03T07:05:17.157Z,102566.03
2022-10-03T07:08:18.851Z,102566.97
2022-10-03T07:11:16.143Z,102566.97
2022-10-03T07:14:16.936Z,102573.22
2022-10-03T07:17:19.398Z,102576.03
2022-10-03T07:20:09.034Z,102578.72
2022-10-03T07:23:09.333Z,102575.44
2022-10-03T07:26:14.929Z,102577.38
2022-10-03T07:29:11.646Z,102584.66
2022-10-03T07:31:55.346Z,102582.25
2022-10-03T07:35:07.917Z,102585.19
2022-10-03T07:38:15.284Z,102588.03
2022-10-03T07:41:17.641Z,102591.97
2022-10-03T07:44:20.282Z,102602.03
2022-10-03T07:47:32.939Z,102599.59
2022-10-03T07:50:32.882Z,102606.44
2022-10-03T07:53:22.312Z,102611.38
2022-10-03T07:56:09.842Z,102609.09
2022-10-03T07:59:05.199Z,102606.97
2022-10-03T08:01:51.609Z,102609.38
2022-10-03T08:04:52.185Z,102617.06
2022-10-03T08:07:56.272Z,102625.41
2022-10-03T08:10:55.838Z,102626.03
2022-10-03T08:13:38.992Z,102622.56
2022-10-03T08:16:26.380Z,102625.28
2022-10-03T08:19:32.461Z,102626.09
2022-10-03T08:22:14.232Z,102623.09
2022-10-03T08:25:21.258Z,102629.84
2022-10-03T08:28:13.642Z,102624.09
2022-10-03T08:31:08.168Z,102621.09
2022-10-03T08:33:59.683Z,102622.34
2022-10-03T08:36:45.536Z,102626.38
2022-10-03T08:39:20.548Z,102618.09
2022-10-03T08:42:29.140Z,102622.38
2022-10-03T08:45:33.071Z,102621.19
2022-10-03T08:48:48.747Z,102626.25
2022-10-03T08:51:51.649Z,102632.94
2022-10-03T08:54:55.479Z,102630.97
2022-10-03T08:57:43.965Z,102633.38
2022-10-03T09:00:20.802Z,102637.50
2022-10-03T09:03:39.175Z,102634.53
2022-10-03T09:07:12.233Z,102642.88
2022-10-03T09:10:09.344Z,102644.03
2022-10-03T09:13:09.633Z,102642.53
2022-10-03T09:16:18.819Z,102640.22
2022-10-03T09:19:14.706Z,102633.31
2022-10-03T09:22:07.284Z,102630.84
2022-10-03T09:25:12.584Z,102634.38
2022-10-03T09:27:57.870Z,102627.22
2022-10-03T09:30:44.428Z,102631.53
2022-10-03T09:34:06.963Z,102627.91
2022-10-03T09:37:05.553Z,102624.25
2022-10-03T09:40:22.853Z,102627.72
2022-10-03T09:43:21.483Z,102630.31
2022-10-03T09:46:28.553Z,102625.88
2022-10-03T09:49:24.838Z,102632.09
2022-10-03T09:52:11.936Z,102634.75
2022-10-03T09:55:08.477Z,102631.25
2022-10-03T09:58:17.319Z,102628.63
2022-10-03T10:01:21.992Z,102626.91
2022-10-03T10:04:50.027Z,102622.41
2022-10-03T10:07:49.960Z,102617.00
2022-10-03T10:10:49.509Z,102622.25
2022-10-03T10:14:06.266Z,102618.69
2022-10-03T10:16:53.861Z,102616.03
2022-10-03T10:19:48.444Z,102621.47
2022-10-03T10:22:54.712Z,102609.84
2022-10-03T10:25:34.782Z,102614.19
2022-10-03T10:28:35.100Z,102613.38
2022-10-03T10:31:34.708Z,102617.88
2022-10-03T10:34:35.274Z,102616.22
2022-10-03T10:37:35.598Z,102618.06
2022-10-03T10:40:40.459Z,102615.59
2022-10-03T10:43:53.722Z,102613.00
2022-10-03T10:46:50.586Z,102609.56
2022-10-03T10:49:57.433Z,102608.75
2022-10-03T10:53:13.720Z,102620.28
2022-10-03T10:56:18.178Z,102611.41
2022-10-03T10:59:17.896Z,102611.34
2022-10-03T11:02:45.185Z,102614.88
2022-10-03T11:05:47.963Z,102623.72
2022-10-03T11:08:55.168Z,102613.09
2022-10-03T11:12:03.096Z,102618.66
2022-10-03T11:15:12.689Z,102611.69
2022-10-03T11:18:15.842Z,102617.97
2022-10-03T11:21:20.503Z,102613.59
2022-10-03T11:24:43.737Z,102610.97
2022-10-03T11:27:53.491Z,102622.41
2022-10-03T11:30:56.138Z,102621.50
2022-10-03T11:33:54.525Z,102617.09
2022-10-03T11:36:51.180Z,102610.88
2022-10-03T11:39:31.314Z,102611.78
2022-10-03T11:42:09.223Z,102615.28
2022-10-03T11:44:49.375Z,102617.09
2022-10-03T11:47:52.928Z,102612.69
2022-10-03T11:50:46.574Z,102603.91
2022-10-03T11:53:37.426Z,102608.47
2022-10-03T11:56:22.144Z,102610.38
2022-10-03T11:59:27.942Z,102607.03
2022-10-03T12:02:10.277Z,102608.97
2022-10-03T12:04:52.186Z,102606.56
2022-10-03T12:07:58.286Z,102599.53
2022-10-03T12:10:40.490Z,102600.44
2022-10-03T12:13:15.279Z,102607.66
2022-10-03T12:15:49.224Z,102598.84
2022-10-03T12:18:32.219Z,102605.22
2022-10-03T12:21:10.771Z,102609.72
2022-10-03T12:24:15.987Z,102607.88
2022-10-03T12:26:53.046Z,102601.56
2022-10-03T12:29:25.043Z,102606.91
2022-10-03T12:32:13.413Z,102597.13
2022-10-03T12:34:46.601Z,102597.06
2022-10-03T12:37:47.583Z,102602.47
2022-10-03T12:40:28.970Z,102598.03
2022-10-03T12:43:08.250Z,102595.44
2022-10-03T12:45:43.508Z,102589.25
2022-10-03T12:48:27.049Z,102597.31
2022-10-03T12:51:02.044Z,102584.97
2022-10-03T12:53:39.066Z,102590.34
2022-10-03T12:56:18.974Z,102598.44
2022-10-03T12:58:57.430Z,102588.81
2022-10-03T13:01:44.314Z,102596.06
2022-10-03T13:04:26.619Z,102584.53
2022-10-03T13:07:15.585Z,102586.31
2022-10-03T13:10:13.625Z,102589.13
2022-10-03T13:12:53.132Z,102588.31
2022-10-03T13:15:54.368Z,102591.88
2022-10-03T13:18:45.675Z,102592.75
2022-10-03T13:21:44.453Z,102583.81
2022-10-03T13:24:22.406Z,102585.47
2022-10-03T13:27:01.612Z,102588.00
2022-10-03T13:29:39.189Z,102579.94
2022-10-03T13:32:16.598Z,102582.63
2022-10-03T13:35:26.220Z,102579.13
2022-10-03T13:38:23.864Z,102582.75
2022-10-03T13:41:00.243Z,102578.31
2022-10-03T13:43:37.963Z,102572.16
2022-10-03T13:46:20.131Z,102569.28
2022-10-03T13:49:01.002Z,102570.91
2022-10-03T13:51:41.804Z,102573.50
2022-10-03T13:54:21.325Z,102565.50
2022-10-03T13:56:58.058Z,102567.28
2022-10-03T13:59:42.800Z,102563.00
2022-10-03T14:02:42.936Z,102568.34
2022-10-03T14:05:30.600Z,102554.06
2022-10-03T14:08:08.501Z,102554.94
2022-10-03T14:11:00.247Z,102554.00
2022-10-03T14:13:39.929Z,102547.72
2022-10-03T14:16:20.593Z,102541.41
2022-10-03T14:19:02.954Z,102540.44
2022-10-03T14:21:44.963Z,102531.47
2022-10-03T14:24:27.565Z,102531.47
2022-10-03T14:27:03.848Z,102534.06
2022-10-03T14:29:43.807Z,102532.22
2022-10-03T14:32:46.183Z,102523.25
2022-10-03T14:35:33.619Z,102521.53
2022-10-03T14:38:48.159Z,102518.81
2022-10-03T14:41:26.047Z,102517.84
2022-10-03T14:43:59.529Z,102515.16
2022-10-03T14:46:35.650Z,102515.09
2022-10-03T14:49:21.321Z,102511.44
2022-10-03T14:52:09.050Z,102513.19
2022-10-03T14:54:42.990Z,102517.59
2022-10-03T14:57:52.905Z,102513.31
2022-10-03T15:00:38.719Z,102510.66
2022-10-03T15:03:25.595Z,102512.44
2022-10-03T15:06:02.710Z,102516.00
2022-10-03T15:08:43.119Z,102507.97
2022-10-03T15:11:16.745Z,102509.78
2022-10-03T15:13:51.221Z,102513.38
2022-10-03T15:16:24.763Z,102516.00
2022-10-03T15:19:01.776Z,102516.00
2022-10-03T15:21:35.314Z,102513.25
2022-10-03T15:24:12.833Z,102522.03
2022-10-03T15:26:53.182Z,102519.31
2022-10-03T15:29:26.898Z,102513.91
2022-10-03T15:31:58.250Z,102520.03
2022-10-03T15:34:34.877Z,102515.59
2022-10-03T15:37:13.010Z,102510.19
2022-10-03T15:39:48.332Z,102508.41
2022-10-03T15:42:28.462Z,102511.94
2022-10-03T15:45:03.977Z,102503.88
2022-10-03T15:47:40.049Z,102491.31
2022-10-03T15:50:20.040Z,102488.59
2022-10-03T15:52:53.398Z,102502.63
2022-10-03T15:55:29.903Z,102492.84
2022-10-03T15:58:04.937Z,102491.94
2022-10-03T16:00:39.153Z,102487.47
2022-10-03T16:03:17.460Z,102480.34
2022-10-03T16:05:58.552Z,102483.91
2022-10-03T16:08:31.702Z,102481.19
2022-10-03T16:11:12.330Z,102480.28
2022-10-03T16:13:45.093Z,102479.41
2022-10-03T16:16:21.038Z,102482.88
2022-10-03T16:19:02.178Z,102474.88
2022-10-03T16:21:49.635Z,102473.94
2022-10-03T16:24:30.139Z,102466.69
2022-10-03T16:27:11.182Z,102467.56
2022-10-03T16:29:49.911Z,102461.28
2022-10-03T16:32:23.191Z,102446.19
2022-10-03T16:34:53.859Z,102455.94
2022-10-03T16:37:27.008Z,102457.66
2022-10-03T16:40:03.242Z,102458.59
2022-10-03T16:42:43.257Z,102453.28
2022-10-03T16:45:28.715Z,102466.50
2022-10-03T16:48:15.191Z,102453.16
2022-10-03T16:50:49.999Z,102449.59
2022-10-03T16:53:21.366Z,102453.13
2022-10-03T16:55:59.911Z,102447.72
2022-10-03T16:58:36.412Z,102452.06
2022-10-03T17:04:16.002Z,102447.47
2022-10-03T17:06:49.947Z,102441.09
2022-10-03T17:09:31.252Z,102441.88
2022-10-03T17:12:03.122Z,102436.47
2022-10-03T17:14:39.619Z,102426.63
2022-10-03T17:17:23.127Z,102428.25
2022-10-03T17:20:00.887Z,102429.03
2022-10-03T17:22:35.582Z,102428.84
2022-10-03T17:25:13.259Z,102428.75
2022-10-03T17:27:46.046Z,102420.59
2022-10-03T17:30:29.877Z,102425.81
2022-10-03T17:33:04.823Z,102428.31
2022-10-03T17:35:43.771Z,102431.69
2022-10-03T17:38:49.512Z,102434.19
2022-10-03T17:41:18.842Z,102436.69
2022-10-03T17:44:00.734Z,102439.22
2022-10-03T17:46:45.808Z,102437.34
2022-10-03T17:49:24.361Z,102445.19
2022-10-03T17:51:57.475Z,102447.72
2022-10-03T17:54:31.506Z,102444.97
2022-10-03T17:57:11.017Z,102446.56
2022-10-03T17:59:50.774Z,102439.38
2022-10-03T18:02:32.545Z,102436.56
2022-10-03T18:05:13.485Z,102431.97
2022-10-03T18:07:46.081Z,102436.28
2022-10-03T18:10:29.164Z,102429.06
2022-10-03T18:13:05.923Z,102421.84
2022-10-03T18:15:43.738Z,102418.16
2022-10-03T18:18:45.486Z,102426.88
2022-10-03T18:21:25.010Z,102429.28
2022-10-03T18:24:15.374Z,102427.38
2022-10-03T18:26:47.836Z,102427.13
2022-10-03T18:29:26.073Z,102419.94
2022-10-03T18:32:00.358Z,102418.00
2022-10-03T18:34:38.003Z,102423.19
2022-10-03T18:37:35.739Z,102421.13
2022-10-03T18:40:08.570Z,102420.84
2022-10-03T18:42:39.417Z,102425.16
2022-10-03T18:45:10.198Z,102411.72
2022-10-03T18:47:44.566Z,102407.19
2022-10-03T18:50:26.073Z,102409.66
2022-10-03T18:52:58.901Z,102409.56
2022-10-03T18:55:32.208Z,102405.91
2022-10-03T18:58:15.238Z,102414.56
2022-10-03T19:00:54.436Z,102423.19
2022-10-03T19:03:31.362Z,102415.03
2022-10-03T19:06:08.660Z,102416.69
2022-10-03T19:08:43.069Z,102419.19
2022-10-03T19:11:19.083Z,102412.94
2022-10-03T19:14:00.465Z,102411.91
2022-10-03T19:16:50.043Z,102399.38
2022-10-03T19:19:28.317Z,102407.19
2022-10-03T19:22:05.488Z,102407.97
2022-10-03T19:24:57.234Z,102404.34
2022-10-03T19:27:43.335Z,102404.22
2022-10-03T19:30:21.568Z,102412.91
2022-10-03T19:32:58.415Z,102413.72
2022-10-03T19:35:29.716Z,102401.22
2022-10-03T19:38:07.011Z,102400.25
2022-10-03T19:40:47.211Z,102403.72
2022-10-03T19:43:40.071Z,102398.31
2022-10-03T19:46:33.669Z,102404.44
2022-10-03T19:49:28.632Z,102401.69
2022-10-03T19:52:14.768Z,102409.47
2022-10-03T19:54:54.652Z,102414.72
2022-10-03T19:57:29.822Z,102410.22
2022-10-03T20:00:03.843Z,102407.47
2022-10-03T20:02:34.167Z,102402.19
2022-10-03T20:05:04.310Z,102407.41
2022-10-03T20:07:48.076Z,102402.97
2022-10-03T20:10:48.606Z,102402.88
2022-10-03T20:13:18.833Z,102406.31
2022-10-03T20:15:52.093Z,102399.22
2022-10-03T20:18:26.396Z,102409.81
2022-10-03T20:20:58.704Z,102410.72
2022-10-03T20:23:31.412Z,102406.28
2022-10-03T20:26:10.259Z,102398.38
2022-10-03T20:29:01.071Z,102399.22
2022-10-03T20:31:33.720Z,102397.44
2022-10-03T20:34:07.827Z,102396.56
2022-10-03T20:36:43.418Z,102390.31
2022-10-03T20:39:18.721Z,102390.31
2022-10-03T20:42:03.745Z,102391.19
2022-10-03T20:45:02.722Z,102389.41
2022-10-03T20:47:52.171Z,102392.94
2022-10-03T20:50:28.104Z,102382.16
2022-10-03T20:53:01.374Z,102398.97
2022-10-03T20:55:35.242Z,102391.94
2022-10-03T20:58:19.439Z,102391.84
2022-10-03T21:00:53.382Z,102401.50
2022-10-03T21:03:31.445Z,102400.63
2022-10-03T21:06:03.093Z,102406.72
2022-10-03T21:08:39.264Z,102408.47
2022-10-03T21:11:22.210Z,102400.50
2022-10-03T21:13:59.832Z,102391.63
2022-10-03T21:16:32.998Z,102393.38
2022-10-03T21:19:05.640Z,102394.25
2022-10-03T21:21:43.034Z,102382.78
2022-10-03T21:24:19.553Z,102379.25
2022-10-03T21:26:55.077Z,102379.25
2022-10-03T21:29:35.355Z,102370.44
2022-10-03T21:32:21.497Z,102364.31
2022-10-03T21:35:00.747Z,102368.72
2022-10-03T21:37:37.322Z,102354.56
2022-10-03T21:40:19.397Z,102352.84
2022-10-03T21:43:02.377Z,102347.53
2022-10-03T21:45:46.061Z,102328.16
2022-10-03T21:48:27.163Z,102329.91
2022-10-03T21:51:01.737Z,102318.34
2022-10-03T21:53:42.553Z,102308.66
2022-10-03T21:56:37.250Z,102311.31
2022-10-03T21:59:30.636Z,102303.38
2022-10-03T22:02:13.074Z,102303.38
2022-10-03T22:04:49.503Z,102300.69
2022-10-03T22:07:21.036Z,102294.44
2022-10-03T22:09:53.008Z,102303.31
2022-10-03T22:12:22.963Z,102310.28
2022-10-03T22:14:58.529Z,102311.19
2022-10-03T22:17:37.887Z,102302.34
2022-10-03T22:20:20.092Z,102300.53
2022-10-03T22:22:59.358Z,102301.44
2022-10-03T22:25:42.277Z,102289.94
2022-10-03T22:28:22.303Z,102286.38
2022-10-03T22:31:03.927Z,102288.13
2022-10-03T22:33:47.783Z,102289.94
2022-10-03T22:36:19.744Z,102291.63
2022-10-03T22:38:51.212Z,102283.63
2022-10-03T22:41:25.599Z,102281.78
2022-10-03T22:43:58.054Z,102273.84
2022-10-03T22:46:32.320Z,102279.09
2022-10-03T22:49:09.414Z,102277.28
2022-10-03T22:51:41.357Z,102285.19
2022-10-03T22:54:14.771Z,102286.00
2022-10-03T22:56:50.021Z,102276.34
2022-10-03T22:59:24.268Z,102280.69
2022-10-03T23:01:55.683Z,102283.34
2022-10-03T23:04:33.545Z,102276.25
2022-10-03T23:07:39.308Z,102287.75
2022-10-03T23:10:25.127Z,102285.06
2022-10-03T23:13:03.427Z,102283.31
2022-10-03T23:15:35.228Z,102277.13
2022-10-03T23:18:45.524Z,102276.25
2022-10-03T23:21:17.972Z,102267.34
2022-10-03T23:24:05.042Z,102266.53
2022-10-03T23:27:06.951Z,102263.94
2022-10-03T23:29:37.168Z,102266.53
2022-10-03T23:32:08.420Z,102263.88
2022-10-03T23:35:09.685Z,102262.13
2022-10-03T23:37:44.635Z,102261.25
2022-10-03T23:40:46.575Z,102258.59
2022-10-03T23:43:30.423Z,102252.38
2022-10-03T23:46:03.362Z,102251.44
2022-10-03T23:48:42.467Z,102253.16
2022-10-03T23:51:17.538Z,102250.50
2022-10-03T23:53:53.890Z,102254.97
2022-10-03T23:56:33.216Z,102254.97
2022-10-03T23:59:13.953Z,102254.09
